sensor_id;sensor_type;location;lat;lon;timestamp;P1;durP1;ratioP1;P2;durP2;ratioP2
12356;SDS011;6243;51.244;6.774;2022-12-07T00:01:06;13.23;;;10.83;;
12356;SDS011;6243;51.244;6.774;2022-12-07T00:03:32;13.00;;;10.13;;
12356;SDS011;6243;51.244;6.774;2022-12-07T00:05:58;13.57;;;11.17;;
12356;SDS011;6243;51.244;6.774;2022-12-07T00:08:23;13.93;;;10.30;;
12356;SDS011;6243;51.244;6.774;2022-12-07T00:10:50;13.53;;;11.27;;
12356;SDS011;6243;51.244;6.774;2022-12-07T00:13:16;12.90;;;10.47;;
12356;SDS011;6243;51.244;6.774;2022-12-07T00:15:41;13.77;;;10.70;;
12356;SDS011;6243;51.244;6.774;2022-12-07T00:18:07;11.63;;;10.43;;
12356;SDS011;6243;51.244;6.774;2022-12-07T00:20:32;13.23;;;10.77;;
12356;SDS011;6243;51.244;6.774;2022-12-07T00:22:58;11.37;;;9.90;;
12356;SDS011;6243;51.244;6.774;2022-12-07T00:25:24;12.00;;;10.67;;
12356;SDS011;6243;51.244;6.774;2022-12-07T00:27:51;13.60;;;10.50;;
12356;SDS011;6243;51.244;6.774;2022-12-07T00:30:17;17.20;;;10.93;;
12356;SDS011;6243;51.244;6.774;2022-12-07T00:32:42;11.93;;;10.63;;
12356;SDS011;6243;51.244;6.774;2022-12-07T00:35:08;14.23;;;10.37;;
12356;SDS011;6243;51.244;6.774;2022-12-07T00:37:33;15.20;;;11.57;;
12356;SDS011;6243;51.244;6.774;2022-12-07T00:39:59;12.07;;;10.80;;
12356;SDS011;6243;51.244;6.774;2022-12-07T00:42:24;12.53;;;10.87;;
12356;SDS011;6243;51.244;6.774;2022-12-07T00:44:51;13.27;;;10.60;;
12356;SDS011;6243;51.244;6.774;2022-12-07T00:47:17;12.73;;;10.77;;
12356;SDS011;6243;51.244;6.774;2022-12-07T00:49:42;13.13;;;11.83;;
12356;SDS011;6243;51.244;6.774;2022-12-07T00:52:08;13.23;;;11.93;;
12356;SDS011;6243;51.244;6.774;2022-12-07T00:54:33;11.33;;;10.10;;
12356;SDS011;6243;51.244;6.774;2022-12-07T00:56:58;15.63;;;11.27;;
12356;SDS011;6243;51.244;6.774;2022-12-07T00:59:24;13.10;;;11.80;;
12356;SDS011;6243;51.244;6.774;2022-12-07T01:01:51;12.57;;;10.90;;
12356;SDS011;6243;51.244;6.774;2022-12-07T01:04:16;12.07;;;10.77;;
12356;SDS011;6243;51.244;6.774;2022-12-07T01:06:42;12.50;;;11.20;;
12356;SDS011;6243;51.244;6.774;2022-12-07T01:09:07;13.60;;;11.93;;
12356;SDS011;6243;51.244;6.774;2022-12-07T01:11:33;12.17;;;10.80;;
12356;SDS011;6243;51.244;6.774;2022-12-07T01:13:59;13.77;;;11.27;;
12356;SDS011;6243;51.244;6.774;2022-12-07T01:16:25;13.17;;;11.63;;
12356;SDS011;6243;51.244;6.774;2022-12-07T01:18:54;13.20;;;11.83;;
12356;SDS011;6243;51.244;6.774;2022-12-07T01:21:21;12.40;;;11.10;;
12356;SDS011;6243;51.244;6.774;2022-12-07T01:23:48;12.70;;;11.37;;
12356;SDS011;6243;51.244;6.774;2022-12-07T01:26:16;13.10;;;11.77;;
12356;SDS011;6243;51.244;6.774;2022-12-07T01:28:43;14.40;;;12.90;;
12356;SDS011;6243;51.244;6.774;2022-12-07T01:31:10;14.20;;;12.20;;
12356;SDS011;6243;51.244;6.774;2022-12-07T01:33:37;14.50;;;11.67;;
12356;SDS011;6243;51.244;6.774;2022-12-07T01:36:08;13.60;;;11.77;;
12356;SDS011;6243;51.244;6.774;2022-12-07T01:38:38;14.23;;;12.83;;
12356;SDS011;6243;51.244;6.774;2022-12-07T01:41:04;13.37;;;11.97;;
12356;SDS011;6243;51.244;6.774;2022-12-07T01:43:31;13.77;;;11.80;;
12356;SDS011;6243;51.244;6.774;2022-12-07T01:45:57;15.37;;;11.60;;
12356;SDS011;6243;51.244;6.774;2022-12-07T01:48:24;17.23;;;13.00;;
12356;SDS011;6243;51.244;6.774;2022-12-07T01:50:52;16.53;;;13.03;;
12356;SDS011;6243;51.244;6.774;2022-12-07T01:53:22;14.60;;;13.10;;
12356;SDS011;6243;51.244;6.774;2022-12-07T01:55:51;14.50;;;12.87;;
12356;SDS011;6243;51.244;6.774;2022-12-07T01:58:18;15.00;;;12.27;;
12356;SDS011;6243;51.244;6.774;2022-12-07T02:00:44;13.37;;;12.07;;
12356;SDS011;6243;51.244;6.774;2022-12-07T02:03:11;14.50;;;12.60;;
12356;SDS011;6243;51.244;6.774;2022-12-07T02:05:40;15.87;;;12.77;;
12356;SDS011;6243;51.244;6.774;2022-12-07T02:08:06;14.83;;;11.97;;
12356;SDS011;6243;51.244;6.774;2022-12-07T02:10:34;12.97;;;11.67;;
12356;SDS011;6243;51.244;6.774;2022-12-07T02:13:01;13.60;;;12.20;;
12356;SDS011;6243;51.244;6.774;2022-12-07T02:15:31;14.40;;;12.43;;
12356;SDS011;6243;51.244;6.774;2022-12-07T02:18:07;13.00;;;11.70;;
12356;SDS011;6243;51.244;6.774;2022-12-07T02:20:37;14.03;;;12.13;;
12356;SDS011;6243;51.244;6.774;2022-12-07T02:23:14;13.27;;;11.87;;
12356;SDS011;6243;51.244;6.774;2022-12-07T02:29:01;15.07;;;12.03;;
12356;SDS011;6243;51.244;6.774;2022-12-07T02:31:36;14.83;;;12.83;;
12356;SDS011;6243;51.244;6.774;2022-12-07T02:34:09;15.43;;;11.70;;
12356;SDS011;6243;51.244;6.774;2022-12-07T02:36:50;12.90;;;11.63;;
12356;SDS011;6243;51.244;6.774;2022-12-07T02:39:23;13.43;;;12.03;;
12356;SDS011;6243;51.244;6.774;2022-12-07T02:41:55;16.27;;;12.73;;
12356;SDS011;6243;51.244;6.774;2022-12-07T02:44:27;13.93;;;12.50;;
12356;SDS011;6243;51.244;6.774;2022-12-07T02:46:55;13.77;;;12.07;;
12356;SDS011;6243;51.244;6.774;2022-12-07T02:49:26;13.60;;;12.17;;
12356;SDS011;6243;51.244;6.774;2022-12-07T02:51:53;14.27;;;12.70;;
12356;SDS011;6243;51.244;6.774;2022-12-07T02:54:19;14.03;;;12.53;;
12356;SDS011;6243;51.244;6.774;2022-12-07T02:56:46;13.77;;;12.17;;
12356;SDS011;6243;51.244;6.774;2022-12-07T02:59:18;15.77;;;12.40;;
12356;SDS011;6243;51.244;6.774;2022-12-07T03:01:55;14.93;;;13.00;;
12356;SDS011;6243;51.244;6.774;2022-12-07T03:04:33;13.17;;;11.87;;
12356;SDS011;6243;51.244;6.774;2022-12-07T03:07:10;16.73;;;12.33;;
12356;SDS011;6243;51.244;6.774;2022-12-07T03:09:42;14.20;;;12.70;;
12356;SDS011;6243;51.244;6.774;2022-12-07T03:12:16;13.50;;;12.10;;
12356;SDS011;6243;51.244;6.774;2022-12-07T03:14:47;14.40;;;11.70;;
12356;SDS011;6243;51.244;6.774;2022-12-07T03:17:19;14.90;;;12.30;;
12356;SDS011;6243;51.244;6.774;2022-12-07T03:19:49;14.00;;;12.60;;
12356;SDS011;6243;51.244;6.774;2022-12-07T03:22:18;13.17;;;11.87;;
12356;SDS011;6243;51.244;6.774;2022-12-07T03:24:46;15.17;;;11.90;;
12356;SDS011;6243;51.244;6.774;2022-12-07T03:27:16;13.27;;;11.87;;
12356;SDS011;6243;51.244;6.774;2022-12-07T03:29:45;13.67;;;12.20;;
12356;SDS011;6243;51.244;6.774;2022-12-07T03:32:14;13.83;;;12.40;;
12356;SDS011;6243;51.244;6.774;2022-12-07T03:34:46;13.70;;;12.23;;
12356;SDS011;6243;51.244;6.774;2022-12-07T03:37:17;12.90;;;11.60;;
12356;SDS011;6243;51.244;6.774;2022-12-07T03:39:50;13.23;;;11.80;;
12356;SDS011;6243;51.244;6.774;2022-12-07T03:42:24;13.60;;;12.00;;
12356;SDS011;6243;51.244;6.774;2022-12-07T03:44:49;13.53;;;11.20;;
12356;SDS011;6243;51.244;6.774;2022-12-07T03:47:16;14.97;;;11.73;;
12356;SDS011;6243;51.244;6.774;2022-12-07T03:49:54;14.43;;;12.20;;
12356;SDS011;6243;51.244;6.774;2022-12-07T03:52:24;12.83;;;10.50;;
12356;SDS011;6243;51.244;6.774;2022-12-07T03:54:56;14.90;;;11.93;;
12356;SDS011;6243;51.244;6.774;2022-12-07T03:57:25;12.80;;;11.43;;
12356;SDS011;6243;51.244;6.774;2022-12-07T03:59:53;13.40;;;11.20;;
12356;SDS011;6243;51.244;6.774;2022-12-07T04:02:20;11.97;;;10.77;;
12356;SDS011;6243;51.244;6.774;2022-12-07T04:04:45;13.17;;;11.77;;
12356;SDS011;6243;51.244;6.774;2022-12-07T04:07:12;13.17;;;11.63;;
12356;SDS011;6243;51.244;6.774;2022-12-07T04:09:38;14.57;;;11.67;;
12356;SDS011;6243;51.244;6.774;2022-12-07T04:12:04;12.43;;;11.13;;
12356;SDS011;6243;51.244;6.774;2022-12-07T04:14:29;12.83;;;11.53;;
12356;SDS011;6243;51.244;6.774;2022-12-07T04:16:55;12.50;;;11.20;;
12356;SDS011;6243;51.244;6.774;2022-12-07T04:19:22;11.93;;;10.47;;
12356;SDS011;6243;51.244;6.774;2022-12-07T04:21:49;12.70;;;11.33;;
12356;SDS011;6243;51.244;6.774;2022-12-07T04:24:16;12.70;;;10.60;;
12356;SDS011;6243;51.244;6.774;2022-12-07T04:26:43;12.50;;;10.60;;
12356;SDS011;6243;51.244;6.774;2022-12-07T04:29:09;11.63;;;10.43;;
12356;SDS011;6243;51.244;6.774;2022-12-07T04:31:35;12.43;;;10.20;;
12356;SDS011;6243;51.244;6.774;2022-12-07T04:34:01;11.53;;;10.30;;
12356;SDS011;6243;51.244;6.774;2022-12-07T04:36:27;13.60;;;10.73;;
12356;SDS011;6243;51.244;6.774;2022-12-07T04:38:53;10.90;;;9.80;;
12356;SDS011;6243;51.244;6.774;2022-12-07T04:41:20;11.20;;;10.10;;
12356;SDS011;6243;51.244;6.774;2022-12-07T04:43:46;11.07;;;9.83;;
12356;SDS011;6243;51.244;6.774;2022-12-07T04:46:11;12.93;;;10.03;;
12356;SDS011;6243;51.244;6.774;2022-12-07T04:48:37;10.33;;;9.20;;
12356;SDS011;6243;51.244;6.774;2022-12-07T04:51:03;10.47;;;8.67;;
12356;SDS011;6243;51.244;6.774;2022-12-07T04:53:28;12.27;;;9.10;;
12356;SDS011;6243;51.244;6.774;2022-12-07T04:55:54;9.67;;;8.10;;
12356;SDS011;6243;51.244;6.774;2022-12-07T04:58:21;9.80;;;8.70;;
12356;SDS011;6243;51.244;6.774;2022-12-07T05:00:46;9.17;;;8.23;;
12356;SDS011;6243;51.244;6.774;2022-12-07T05:03:12;11.27;;;7.90;;
12356;SDS011;6243;51.244;6.774;2022-12-07T05:05:39;9.27;;;7.97;;
12356;SDS011;6243;51.244;6.774;2022-12-07T05:08:05;9.00;;;8.10;;
12356;SDS011;6243;51.244;6.774;2022-12-07T05:10:30;8.00;;;7.20;;
12356;SDS011;6243;51.244;6.774;2022-12-07T05:12:56;9.37;;;8.37;;
12356;SDS011;6243;51.244;6.774;2022-12-07T05:15:23;9.80;;;8.13;;
12356;SDS011;6243;51.244;6.774;2022-12-07T05:17:48;8.60;;;7.60;;
12356;SDS011;6243;51.244;6.774;2022-12-07T05:20:14;8.50;;;7.70;;
12356;SDS011;6243;51.244;6.774;2022-12-07T05:22:39;10.03;;;7.77;;
12356;SDS011;6243;51.244;6.774;2022-12-07T05:25:05;9.07;;;7.40;;
12356;SDS011;6243;51.244;6.774;2022-12-07T05:27:31;9.63;;;7.83;;
12356;SDS011;6243;51.244;6.774;2022-12-07T05:29:56;11.13;;;8.07;;
12356;SDS011;6243;51.244;6.774;2022-12-07T05:32:23;8.40;;;7.50;;
12356;SDS011;6243;51.244;6.774;2022-12-07T05:34:48;10.57;;;7.77;;
12356;SDS011;6243;51.244;6.774;2022-12-07T05:37:14;8.47;;;7.10;;
12356;SDS011;6243;51.244;6.774;2022-12-07T05:39:39;9.87;;;8.00;;
12356;SDS011;6243;51.244;6.774;2022-12-07T05:42:05;9.03;;;7.17;;
12356;SDS011;6243;51.244;6.774;2022-12-07T05:44:30;8.20;;;7.40;;
12356;SDS011;6243;51.244;6.774;2022-12-07T05:46:56;9.33;;;7.40;;
12356;SDS011;6243;51.244;6.774;2022-12-07T05:49:22;9.90;;;7.87;;
12356;SDS011;6243;51.244;6.774;2022-12-07T05:51:48;9.20;;;7.67;;
12356;SDS011;6243;51.244;6.774;2022-12-07T05:54:13;10.13;;;7.80;;
12356;SDS011;6243;51.244;6.774;2022-12-07T05:56:39;7.97;;;7.17;;
12356;SDS011;6243;51.244;6.774;2022-12-07T05:59:04;9.30;;;7.07;;
12356;SDS011;6243;51.244;6.774;2022-12-07T06:01:30;8.50;;;7.00;;
12356;SDS011;6243;51.244;6.774;2022-12-07T06:03:55;8.13;;;7.13;;
12356;SDS011;6243;51.244;6.774;2022-12-07T06:06:22;7.93;;;6.97;;
12356;SDS011;6243;51.244;6.774;2022-12-07T06:08:48;10.63;;;7.10;;
12356;SDS011;6243;51.244;6.774;2022-12-07T06:11:13;8.30;;;7.47;;
12356;SDS011;6243;51.244;6.774;2022-12-07T06:13:39;7.63;;;6.67;;
12356;SDS011;6243;51.244;6.774;2022-12-07T06:16:04;7.93;;;6.87;;
12356;SDS011;6243;51.244;6.774;2022-12-07T06:18:31;7.67;;;6.87;;
12356;SDS011;6243;51.244;6.774;2022-12-07T06:20:56;6.63;;;5.83;;
12356;SDS011;6243;51.244;6.774;2022-12-07T06:23:23;8.63;;;6.07;;
12356;SDS011;6243;51.244;6.774;2022-12-07T06:25:48;7.30;;;6.60;;
12356;SDS011;6243;51.244;6.774;2022-12-07T06:28:14;11.30;;;7.00;;
12356;SDS011;6243;51.244;6.774;2022-12-07T06:30:39;6.87;;;6.20;;
12356;SDS011;6243;51.244;6.774;2022-12-07T06:33:05;8.03;;;6.90;;
12356;SDS011;6243;51.244;6.774;2022-12-07T06:35:31;8.13;;;6.83;;
12356;SDS011;6243;51.244;6.774;2022-12-07T06:37:57;7.73;;;6.93;;
12356;SDS011;6243;51.244;6.774;2022-12-07T06:40:24;8.70;;;6.67;;
12356;SDS011;6243;51.244;6.774;2022-12-07T06:42:49;7.77;;;6.60;;
12356;SDS011;6243;51.244;6.774;2022-12-07T06:45:15;10.13;;;7.70;;
12356;SDS011;6243;51.244;6.774;2022-12-07T06:47:40;7.97;;;7.10;;
12356;SDS011;6243;51.244;6.774;2022-12-07T06:50:06;9.73;;;7.33;;
12356;SDS011;6243;51.244;6.774;2022-12-07T06:52:32;8.83;;;7.03;;
12356;SDS011;6243;51.244;6.774;2022-12-07T06:54:58;8.43;;;6.67;;
12356;SDS011;6243;51.244;6.774;2022-12-07T06:57:25;8.10;;;7.30;;
12356;SDS011;6243;51.244;6.774;2022-12-07T06:59:51;8.77;;;7.20;;
12356;SDS011;6243;51.244;6.774;2022-12-07T07:02:17;8.03;;;7.07;;
12356;SDS011;6243;51.244;6.774;2022-12-07T07:04:42;9.47;;;7.50;;
12356;SDS011;6243;51.244;6.774;2022-12-07T07:07:08;10.43;;;7.77;;
12356;SDS011;6243;51.244;6.774;2022-12-07T07:09:33;10.53;;;8.13;;
12356;SDS011;6243;51.244;6.774;2022-12-07T07:11:58;13.73;;;8.07;;
12356;SDS011;6243;51.244;6.774;2022-12-07T07:14:25;9.07;;;7.40;;
12356;SDS011;6243;51.244;6.774;2022-12-07T07:16:51;8.60;;;7.07;;
12356;SDS011;6243;51.244;6.774;2022-12-07T07:19:17;8.07;;;7.00;;
12356;SDS011;6243;51.244;6.774;2022-12-07T07:21:42;9.90;;;7.73;;
12356;SDS011;6243;51.244;6.774;2022-12-07T07:24:08;10.60;;;7.40;;
12356;SDS011;6243;51.244;6.774;2022-12-07T07:26:33;10.13;;;6.90;;
12356;SDS011;6243;51.244;6.774;2022-12-07T07:28:59;8.43;;;7.40;;
12356;SDS011;6243;51.244;6.774;2022-12-07T07:31:26;8.70;;;6.93;;
12356;SDS011;6243;51.244;6.774;2022-12-07T07:33:51;9.33;;;6.83;;
12356;SDS011;6243;51.244;6.774;2022-12-07T07:36:17;8.17;;;6.97;;
12356;SDS011;6243;51.244;6.774;2022-12-07T07:38:42;9.87;;;7.17;;
12356;SDS011;6243;51.244;6.774;2022-12-07T07:41:08;7.30;;;6.43;;
12356;SDS011;6243;51.244;6.774;2022-12-07T07:43:33;8.23;;;7.17;;
12356;SDS011;6243;51.244;6.774;2022-12-07T07:45:59;9.67;;;6.77;;
12356;SDS011;6243;51.244;6.774;2022-12-07T07:48:25;9.37;;;6.93;;
12356;SDS011;6243;51.244;6.774;2022-12-07T07:50:51;11.60;;;7.10;;
12356;SDS011;6243;51.244;6.774;2022-12-07T07:53:16;8.30;;;7.10;;
12356;SDS011;6243;51.244;6.774;2022-12-07T07:55:49;9.73;;;7.20;;
12356;SDS011;6243;51.244;6.774;2022-12-07T07:58:15;9.07;;;6.60;;
12356;SDS011;6243;51.244;6.774;2022-12-07T08:00:41;7.70;;;6.57;;
12356;SDS011;6243;51.244;6.774;2022-12-07T08:03:06;8.93;;;6.80;;
12356;SDS011;6243;51.244;6.774;2022-12-07T08:05:33;6.50;;;5.90;;
12356;SDS011;6243;51.244;6.774;2022-12-07T08:07:59;7.50;;;6.37;;
12356;SDS011;6243;51.244;6.774;2022-12-07T08:10:24;7.13;;;6.17;;
12356;SDS011;6243;51.244;6.774;2022-12-07T08:12:50;6.83;;;5.93;;
12356;SDS011;6243;51.244;6.774;2022-12-07T08:15:16;7.70;;;6.30;;
12356;SDS011;6243;51.244;6.774;2022-12-07T08:17:41;9.13;;;6.43;;
12356;SDS011;6243;51.244;6.774;2022-12-07T08:20:07;10.73;;;6.40;;
12356;SDS011;6243;51.244;6.774;2022-12-07T08:22:34;9.00;;;6.73;;
12356;SDS011;6243;51.244;6.774;2022-12-07T08:25:00;7.53;;;5.80;;
12356;SDS011;6243;51.244;6.774;2022-12-07T08:27:25;8.30;;;6.20;;
12356;SDS011;6243;51.244;6.774;2022-12-07T08:29:51;10.27;;;6.03;;
12356;SDS011;6243;51.244;6.774;2022-12-07T08:32:17;7.97;;;6.37;;
12356;SDS011;6243;51.244;6.774;2022-12-07T08:34:42;6.10;;;5.50;;
12356;SDS011;6243;51.244;6.774;2022-12-07T08:37:08;6.30;;;5.70;;
12356;SDS011;6243;51.244;6.774;2022-12-07T08:39:35;6.53;;;5.80;;
12356;SDS011;6243;51.244;6.774;2022-12-07T08:42:01;8.43;;;6.00;;
12356;SDS011;6243;51.244;6.774;2022-12-07T08:44:26;8.17;;;6.23;;
12356;SDS011;6243;51.244;6.774;2022-12-07T08:46:52;6.23;;;5.57;;
12356;SDS011;6243;51.244;6.774;2022-12-07T08:49:22;7.00;;;5.63;;
12356;SDS011;6243;51.244;6.774;2022-12-07T08:51:50;8.43;;;5.80;;
12356;SDS011;6243;51.244;6.774;2022-12-07T08:54:16;7.00;;;5.73;;
12356;SDS011;6243;51.244;6.774;2022-12-07T08:56:45;9.80;;;5.80;;
12356;SDS011;6243;51.244;6.774;2022-12-07T08:59:12;9.07;;;6.23;;
12356;SDS011;6243;51.244;6.774;2022-12-07T09:01:42;6.40;;;5.80;;
12356;SDS011;6243;51.244;6.774;2022-12-07T09:04:07;7.10;;;5.73;;
12356;SDS011;6243;51.244;6.774;2022-12-07T09:06:33;6.50;;;5.70;;
12356;SDS011;6243;51.244;6.774;2022-12-07T09:08:59;8.43;;;6.03;;
12356;SDS011;6243;51.244;6.774;2022-12-07T09:11:26;7.90;;;5.70;;
12356;SDS011;6243;51.244;6.774;2022-12-07T09:13:53;7.20;;;5.67;;
12356;SDS011;6243;51.244;6.774;2022-12-07T09:16:19;7.57;;;5.87;;
12356;SDS011;6243;51.244;6.774;2022-12-07T09:18:44;6.37;;;5.07;;
12356;SDS011;6243;51.244;6.774;2022-12-07T09:21:10;8.23;;;5.37;;
12356;SDS011;6243;51.244;6.774;2022-12-07T09:23:35;7.50;;;6.10;;
12356;SDS011;6243;51.244;6.774;2022-12-07T09:26:01;6.07;;;5.33;;
12356;SDS011;6243;51.244;6.774;2022-12-07T09:28:27;8.87;;;5.90;;
12356;SDS011;6243;51.244;6.774;2022-12-07T09:30:53;6.17;;;5.23;;
12356;SDS011;6243;51.244;6.774;2022-12-07T09:33:19;8.90;;;5.53;;
12356;SDS011;6243;51.244;6.774;2022-12-07T09:35:45;7.20;;;5.00;;
12356;SDS011;6243;51.244;6.774;2022-12-07T09:38:11;8.67;;;6.10;;
12356;SDS011;6243;51.244;6.774;2022-12-07T09:40:36;9.77;;;6.03;;
12356;SDS011;6243;51.244;6.774;2022-12-07T09:43:02;8.83;;;5.63;;
12356;SDS011;6243;51.244;6.774;2022-12-07T09:45:29;6.83;;;5.57;;
12356;SDS011;6243;51.244;6.774;2022-12-07T09:48:00;9.03;;;5.57;;
12356;SDS011;6243;51.244;6.774;2022-12-07T09:50:28;7.40;;;5.83;;
12356;SDS011;6243;51.244;6.774;2022-12-07T09:52:54;6.80;;;5.40;;
12356;SDS011;6243;51.244;6.774;2022-12-07T09:55:31;7.00;;;5.33;;
12356;SDS011;6243;51.244;6.774;2022-12-07T09:57:59;8.20;;;5.83;;
12356;SDS011;6243;51.244;6.774;2022-12-07T10:00:24;6.67;;;5.03;;
12356;SDS011;6243;51.244;6.774;2022-12-07T10:02:51;5.90;;;5.20;;
12356;SDS011;6243;51.244;6.774;2022-12-07T10:05:23;9.43;;;5.70;;
12356;SDS011;6243;51.244;6.774;2022-12-07T10:07:51;8.90;;;5.23;;
12356;SDS011;6243;51.244;6.774;2022-12-07T10:10:18;8.03;;;4.90;;
12356;SDS011;6243;51.244;6.774;2022-12-07T10:12:55;6.23;;;4.97;;
12356;SDS011;6243;51.244;6.774;2022-12-07T10:15:23;7.30;;;4.90;;
12356;SDS011;6243;51.244;6.774;2022-12-07T10:17:48;9.20;;;5.53;;
12356;SDS011;6243;51.244;6.774;2022-12-07T10:20:17;6.80;;;5.10;;
12356;SDS011;6243;51.244;6.774;2022-12-07T10:22:59;6.57;;;5.00;;
12356;SDS011;6243;51.244;6.774;2022-12-07T10:25:27;6.63;;;4.80;;
12356;SDS011;6243;51.244;6.774;2022-12-07T10:27:57;8.93;;;5.37;;
12356;SDS011;6243;51.244;6.774;2022-12-07T10:30:24;7.20;;;5.00;;
12356;SDS011;6243;51.244;6.774;2022-12-07T10:32:50;8.67;;;5.20;;
12356;SDS011;6243;51.244;6.774;2022-12-07T10:35:20;5.73;;;4.53;;
12356;SDS011;6243;51.244;6.774;2022-12-07T10:37:50;6.07;;;4.90;;
12356;SDS011;6243;51.244;6.774;2022-12-07T10:40:28;7.07;;;5.10;;
12356;SDS011;6243;51.244;6.774;2022-12-07T10:43:03;6.23;;;4.97;;
12356;SDS011;6243;51.244;6.774;2022-12-07T10:45:31;8.40;;;5.10;;
12356;SDS011;6243;51.244;6.774;2022-12-07T10:47:59;9.47;;;5.03;;
12356;SDS011;6243;51.244;6.774;2022-12-07T10:50:45;6.73;;;4.70;;
12356;SDS011;6243;51.244;6.774;2022-12-07T10:53:27;6.00;;;4.87;;
12356;SDS011;6243;51.244;6.774;2022-12-07T10:56:06;7.93;;;4.40;;
12356;SDS011;6243;51.244;6.774;2022-12-07T10:58:50;6.97;;;4.10;;
12356;SDS011;6243;51.244;6.774;2022-12-07T11:01:25;5.90;;;4.10;;
12356;SDS011;6243;51.244;6.774;2022-12-07T11:04:03;7.37;;;4.47;;
12356;SDS011;6243;51.244;6.774;2022-12-07T11:06:44;6.90;;;4.57;;
12356;SDS011;6243;51.244;6.774;2022-12-07T11:09:31;5.40;;;4.27;;
12356;SDS011;6243;51.244;6.774;2022-12-07T11:12:13;8.77;;;4.43;;
12356;SDS011;6243;51.244;6.774;2022-12-07T11:14:50;5.63;;;3.70;;
12356;SDS011;6243;51.244;6.774;2022-12-07T11:17:24;7.20;;;4.07;;
12356;SDS011;6243;51.244;6.774;2022-12-07T11:20:00;4.43;;;3.80;;
12356;SDS011;6243;51.244;6.774;2022-12-07T11:22:35;8.27;;;4.33;;
12356;SDS011;6243;51.244;6.774;2022-12-07T11:25:18;6.77;;;4.33;;
12356;SDS011;6243;51.244;6.774;2022-12-07T11:27:56;5.23;;;3.60;;
12356;SDS011;6243;51.244;6.774;2022-12-07T11:30:38;6.43;;;4.03;;
12356;SDS011;6243;51.244;6.774;2022-12-07T11:33:10;6.30;;;4.17;;
12356;SDS011;6243;51.244;6.774;2022-12-07T11:35:45;7.23;;;4.03;;
12356;SDS011;6243;51.244;6.774;2022-12-07T11:38:21;7.33;;;4.43;;
12356;SDS011;6243;51.244;6.774;2022-12-07T11:40:53;8.53;;;4.10;;
12356;SDS011;6243;51.244;6.774;2022-12-07T11:43:27;7.23;;;4.23;;
12356;SDS011;6243;51.244;6.774;2022-12-07T11:45:57;8.27;;;4.40;;
12356;SDS011;6243;51.244;6.774;2022-12-07T11:48:29;7.57;;;4.27;;
12356;SDS011;6243;51.244;6.774;2022-12-07T11:50:59;9.20;;;5.10;;
12356;SDS011;6243;51.244;6.774;2022-12-07T11:53:29;8.07;;;4.60;;
12356;SDS011;6243;51.244;6.774;2022-12-07T11:56:02;7.53;;;4.33;;
12356;SDS011;6243;51.244;6.774;2022-12-07T11:58:39;9.83;;;4.53;;
12356;SDS011;6243;51.244;6.774;2022-12-07T12:01:14;6.63;;;4.53;;
12356;SDS011;6243;51.244;6.774;2022-12-07T12:03:49;9.43;;;4.67;;
12356;SDS011;6243;51.244;6.774;2022-12-07T12:06:17;6.13;;;4.87;;
12356;SDS011;6243;51.244;6.774;2022-12-07T12:08:46;8.40;;;4.87;;
12356;SDS011;6243;51.244;6.774;2022-12-07T12:11:21;7.03;;;4.60;;
12356;SDS011;6243;51.244;6.774;2022-12-07T12:14:03;8.23;;;4.50;;
12356;SDS011;6243;51.244;6.774;2022-12-07T12:16:51;8.60;;;4.90;;
12356;SDS011;6243;51.244;6.774;2022-12-07T12:19:32;7.57;;;4.67;;
12356;SDS011;6243;51.244;6.774;2022-12-07T12:22:03;9.00;;;4.83;;
12356;SDS011;6243;51.244;6.774;2022-12-07T12:24:36;6.77;;;4.87;;
12356;SDS011;6243;51.244;6.774;2022-12-07T12:27:05;7.43;;;5.30;;
12356;SDS011;6243;51.244;6.774;2022-12-07T12:29:34;8.23;;;5.03;;
12356;SDS011;6243;51.244;6.774;2022-12-07T12:32:05;10.10;;;4.87;;
12356;SDS011;6243;51.244;6.774;2022-12-07T12:34:40;7.13;;;4.23;;
12356;SDS011;6243;51.244;6.774;2022-12-07T12:37:17;6.67;;;4.53;;
12356;SDS011;6243;51.244;6.774;2022-12-07T12:55:14;6.23;;;4.40;;
12356;SDS011;6243;51.244;6.774;2022-12-07T12:57:42;7.00;;;4.23;;
12356;SDS011;6243;51.244;6.774;2022-12-07T13:00:15;7.07;;;4.00;;
12356;SDS011;6243;51.244;6.774;2022-12-07T13:02:47;5.03;;;3.97;;
12356;SDS011;6243;51.244;6.774;2022-12-07T13:05:18;7.70;;;3.97;;
12356;SDS011;6243;51.244;6.774;2022-12-07T13:07:53;6.23;;;4.27;;
12356;SDS011;6243;51.244;6.774;2022-12-07T13:10:25;8.60;;;4.10;;
12356;SDS011;6243;51.244;6.774;2022-12-07T13:18:57;7.93;;;3.10;;
12356;SDS011;6243;51.244;6.774;2022-12-07T13:21:41;3.27;;;2.73;;
12356;SDS011;6243;51.244;6.774;2022-12-07T13:24:08;5.83;;;2.53;;
12356;SDS011;6243;51.244;6.774;2022-12-07T13:26:37;5.03;;;2.50;;
12356;SDS011;6243;51.244;6.774;2022-12-07T13:29:11;5.57;;;2.40;;
12356;SDS011;6243;51.244;6.774;2022-12-07T13:31:38;6.77;;;2.50;;
12356;SDS011;6243;51.244;6.774;2022-12-07T13:34:27;4.03;;;2.40;;
12356;SDS011;6243;51.244;6.774;2022-12-07T13:36:54;4.00;;;2.30;;
12356;SDS011;6243;51.244;6.774;2022-12-07T13:39:21;4.33;;;2.20;;
12356;SDS011;6243;51.244;6.774;2022-12-07T13:41:49;3.80;;;2.47;;
12356;SDS011;6243;51.244;6.774;2022-12-07T13:44:17;4.30;;;2.00;;
12356;SDS011;6243;51.244;6.774;2022-12-07T13:46:46;5.00;;;2.30;;
12356;SDS011;6243;51.244;6.774;2022-12-07T13:49:17;5.03;;;2.23;;
12356;SDS011;6243;51.244;6.774;2022-12-07T13:51:45;4.30;;;2.10;;
12356;SDS011;6243;51.244;6.774;2022-12-07T13:54:11;4.63;;;2.07;;
12356;SDS011;6243;51.244;6.774;2022-12-07T13:56:38;3.20;;;1.63;;
12356;SDS011;6243;51.244;6.774;2022-12-07T13:59:04;5.10;;;2.33;;
12356;SDS011;6243;51.244;6.774;2022-12-07T14:01:36;2.90;;;1.80;;
12356;SDS011;6243;51.244;6.774;2022-12-07T14:06:54;4.40;;;2.33;;
12356;SDS011;6243;51.244;6.774;2022-12-07T14:09:21;8.43;;;2.00;;
12356;SDS011;6243;51.244;6.774;2022-12-07T14:11:47;3.60;;;2.27;;
12356;SDS011;6243;51.244;6.774;2022-12-07T14:14:16;5.57;;;2.37;;
12356;SDS011;6243;51.244;6.774;2022-12-07T14:16:45;7.13;;;2.10;;
12356;SDS011;6243;51.244;6.774;2022-12-07T14:22:18;4.37;;;2.23;;
12356;SDS011;6243;51.244;6.774;2022-12-07T14:24:47;5.23;;;2.60;;
12356;SDS011;6243;51.244;6.774;2022-12-07T14:27:16;3.50;;;2.03;;
12356;SDS011;6243;51.244;6.774;2022-12-07T14:29:43;5.90;;;2.63;;
12356;SDS011;6243;51.244;6.774;2022-12-07T14:32:20;5.80;;;2.90;;
12356;SDS011;6243;51.244;6.774;2022-12-07T14:34:55;5.30;;;2.70;;
12356;SDS011;6243;51.244;6.774;2022-12-07T14:37:21;5.57;;;2.97;;
12356;SDS011;6243;51.244;6.774;2022-12-07T14:39:47;5.13;;;2.73;;
12356;SDS011;6243;51.244;6.774;2022-12-07T14:42:13;6.50;;;3.23;;
12356;SDS011;6243;51.244;6.774;2022-12-07T14:44:38;10.13;;;3.53;;
12356;SDS011;6243;51.244;6.774;2022-12-07T14:47:04;4.90;;;2.93;;
12356;SDS011;6243;51.244;6.774;2022-12-07T14:49:31;5.17;;;2.90;;
12356;SDS011;6243;51.244;6.774;2022-12-07T14:51:57;4.73;;;3.00;;
12356;SDS011;6243;51.244;6.774;2022-12-07T14:54:23;7.20;;;3.40;;
12356;SDS011;6243;51.244;6.774;2022-12-07T14:56:54;5.17;;;3.67;;
12356;SDS011;6243;51.244;6.774;2022-12-07T14:59:20;5.10;;;3.10;;
12356;SDS011;6243;51.244;6.774;2022-12-07T15:01:45;7.50;;;3.23;;
12356;SDS011;6243;51.244;6.774;2022-12-07T15:04:11;5.30;;;3.17;;
12356;SDS011;6243;51.244;6.774;2022-12-07T15:06:38;6.70;;;2.70;;
12356;SDS011;6243;51.244;6.774;2022-12-07T15:09:03;6.10;;;3.37;;
12356;SDS011;6243;51.244;6.774;2022-12-07T15:11:29;8.03;;;3.33;;
12356;SDS011;6243;51.244;6.774;2022-12-07T15:13:55;4.30;;;2.80;;
12356;SDS011;6243;51.244;6.774;2022-12-07T15:16:20;5.63;;;2.97;;
12356;SDS011;6243;51.244;6.774;2022-12-07T15:18:46;6.23;;;3.07;;
12356;SDS011;6243;51.244;6.774;2022-12-07T15:21:12;7.23;;;3.20;;
12356;SDS011;6243;51.244;6.774;2022-12-07T15:23:41;5.83;;;3.17;;
12356;SDS011;6243;51.244;6.774;2022-12-07T15:26:06;4.97;;;3.17;;
12356;SDS011;6243;51.244;6.774;2022-12-07T15:28:32;5.27;;;3.00;;
12356;SDS011;6243;51.244;6.774;2022-12-07T15:30:58;3.93;;;2.87;;